Аэропорт: Ленкорань. Ленкорань

ICAO: UBBL

METAR:
2019-11-21 09:00:00
UBBL 210900Z 32006KT 9000 -RA OVC013 09/09 Q1028 R33/CLRD// NOSIG RMK MT OBSC
METAR:
2019-11-21 05:14:00
TAF UBBL 210514Z 2106/2206 36004KT 9000 -RA SCT012 OVC020 TX09/2110Z TN03/2202Z TEMPO 2109/2118 06010KT 4000 BR BKN008 TEMPO 2118/2206 2000 RA BR BKN006 OVC012